sensor_id;sensor_type;location;lat;lon;timestamp;P1;durP1;ratioP1;P2;durP2;ratioP2
18296;SDS011;18066;52.106;5.534;2024-03-23T00:55:19;21.50;;;8.50;;
18296;SDS011;18066;52.106;5.534;2024-03-23T00:57:50;18.73;;;8.43;;
18296;SDS011;18066;52.106;5.534;2024-03-23T01:00:20;20.73;;;8.30;;
18296;SDS011;18066;52.106;5.534;2024-03-23T01:03:02;24.60;;;9.43;;
18296;SDS011;18066;52.106;5.534;2024-03-23T01:05:31;26.43;;;8.83;;
18296;SDS011;18066;52.106;5.534;2024-03-23T01:08:01;26.03;;;7.83;;
18296;SDS011;18066;52.106;5.534;2024-03-23T01:10:31;25.13;;;8.43;;
18296;SDS011;18066;52.106;5.534;2024-03-23T01:12:57;29.17;;;9.50;;
18296;SDS011;18066;52.106;5.534;2024-03-23T01:15:24;26.20;;;8.57;;
18296;SDS011;18066;52.106;5.534;2024-03-23T01:18:05;24.17;;;8.40;;
18296;SDS011;18066;52.106;5.534;2024-03-23T01:20:38;26.30;;;8.30;;
18296;SDS011;18066;52.106;5.534;2024-03-23T01:23:11;26.83;;;7.87;;
18296;SDS011;18066;52.106;5.534;2024-03-23T01:25:42;25.27;;;8.23;;
18296;SDS011;18066;52.106;5.534;2024-03-23T01:28:19;34.20;;;9.83;;
18296;SDS011;18066;52.106;5.534;2024-03-23T01:30:46;34.17;;;8.13;;
18296;SDS011;18066;52.106;5.534;2024-03-23T01:33:13;27.93;;;8.90;;
18296;SDS011;18066;52.106;5.534;2024-03-23T01:35:44;18.53;;;7.77;;
18296;SDS011;18066;52.106;5.534;2024-03-23T01:38:15;26.17;;;9.00;;
18296;SDS011;18066;52.106;5.534;2024-03-23T01:40:56;22.47;;;8.00;;
18296;SDS011;18066;52.106;5.534;2024-03-23T01:43:25;24.83;;;7.77;;
18296;SDS011;18066;52.106;5.534;2024-03-23T01:45:52;25.23;;;8.13;;
18296;SDS011;18066;52.106;5.534;2024-03-23T01:48:21;20.73;;;7.57;;
18296;SDS011;18066;52.106;5.534;2024-03-23T01:50:55;30.10;;;9.50;;
18296;SDS011;18066;52.106;5.534;2024-03-23T01:53:29;35.60;;;8.23;;
18296;SDS011;18066;52.106;5.534;2024-03-23T01:55:56;21.60;;;7.30;;
18296;SDS011;18066;52.106;5.534;2024-03-23T01:58:22;26.60;;;7.53;;
18296;SDS011;18066;52.106;5.534;2024-03-23T02:00:49;25.33;;;7.40;;
18296;SDS011;18066;52.106;5.534;2024-03-23T02:03:23;19.53;;;7.67;;
18296;SDS011;18066;52.106;5.534;2024-03-23T02:06:01;27.80;;;6.93;;
18296;SDS011;18066;52.106;5.534;2024-03-23T02:08:40;21.10;;;7.93;;
18296;SDS011;18066;52.106;5.534;2024-03-23T02:11:09;24.13;;;7.63;;
18296;SDS011;18066;52.106;5.534;2024-03-23T02:13:37;26.47;;;8.33;;
18296;SDS011;18066;52.106;5.534;2024-03-23T02:16:07;19.87;;;7.60;;
18296;SDS011;18066;52.106;5.534;2024-03-23T02:18:40;20.73;;;7.23;;
18296;SDS011;18066;52.106;5.534;2024-03-23T02:21:07;17.17;;;7.37;;
18296;SDS011;18066;52.106;5.534;2024-03-23T02:23:34;27.43;;;8.00;;
18296;SDS011;18066;52.106;5.534;2024-03-23T02:26:05;26.03;;;8.63;;
18296;SDS011;18066;52.106;5.534;2024-03-23T02:28:34;22.10;;;7.60;;
18296;SDS011;18066;52.106;5.534;2024-03-23T02:31:01;29.97;;;8.33;;
18296;SDS011;18066;52.106;5.534;2024-03-23T02:33:27;25.30;;;8.37;;
18296;SDS011;18066;52.106;5.534;2024-03-23T02:35:55;26.50;;;8.20;;
18296;SDS011;18066;52.106;5.534;2024-03-23T02:38:22;24.83;;;8.93;;
18296;SDS011;18066;52.106;5.534;2024-03-23T02:40:50;25.07;;;8.60;;
18296;SDS011;18066;52.106;5.534;2024-03-23T02:43:16;23.20;;;8.37;;
18296;SDS011;18066;52.106;5.534;2024-03-23T02:45:43;26.93;;;10.13;;
18296;SDS011;18066;52.106;5.534;2024-03-23T02:48:09;22.47;;;8.47;;
18296;SDS011;18066;52.106;5.534;2024-03-23T02:50:36;24.20;;;8.73;;
18296;SDS011;18066;52.106;5.534;2024-03-23T02:53:02;24.17;;;7.60;;
18296;SDS011;18066;52.106;5.534;2024-03-23T02:55:29;25.40;;;8.07;;
18296;SDS011;18066;52.106;5.534;2024-03-23T02:57:59;20.60;;;8.40;;
18296;SDS011;18066;52.106;5.534;2024-03-23T03:00:31;25.40;;;9.40;;
18296;SDS011;18066;52.106;5.534;2024-03-23T03:02:59;32.30;;;9.20;;
18296;SDS011;18066;52.106;5.534;2024-03-23T03:05:26;17.53;;;8.07;;
18296;SDS011;18066;52.106;5.534;2024-03-23T03:07:52;29.43;;;10.40;;
18296;SDS011;18066;52.106;5.534;2024-03-23T03:10:23;24.53;;;9.17;;
18296;SDS011;18066;52.106;5.534;2024-03-23T03:13:03;20.30;;;8.03;;
18296;SDS011;18066;52.106;5.534;2024-03-23T03:15:32;29.00;;;8.67;;
18296;SDS011;18066;52.106;5.534;2024-03-23T03:17:58;19.03;;;7.13;;
18296;SDS011;18066;52.106;5.534;2024-03-23T03:20:25;17.57;;;7.90;;
18296;SDS011;18066;52.106;5.534;2024-03-23T03:22:51;23.37;;;8.83;;
18296;SDS011;18066;52.106;5.534;2024-03-23T03:25:18;25.03;;;8.40;;
18296;SDS011;18066;52.106;5.534;2024-03-23T03:27:44;21.90;;;8.03;;
18296;SDS011;18066;52.106;5.534;2024-03-23T03:30:21;25.73;;;9.10;;
18296;SDS011;18066;52.106;5.534;2024-03-23T03:32:47;25.03;;;8.33;;
18296;SDS011;18066;52.106;5.534;2024-03-23T03:35:20;16.60;;;7.47;;
18296;SDS011;18066;52.106;5.534;2024-03-23T03:37:49;20.53;;;7.87;;
18296;SDS011;18066;52.106;5.534;2024-03-23T03:40:18;20.77;;;8.37;;
18296;SDS011;18066;52.106;5.534;2024-03-23T03:42:44;20.90;;;7.80;;
18296;SDS011;18066;52.106;5.534;2024-03-23T03:45:11;18.13;;;6.90;;
18296;SDS011;18066;52.106;5.534;2024-03-23T03:47:38;20.33;;;7.10;;
18296;SDS011;18066;52.106;5.534;2024-03-23T03:50:06;27.00;;;8.17;;
18296;SDS011;18066;52.106;5.534;2024-03-23T03:52:36;19.33;;;7.57;;
18296;SDS011;18066;52.106;5.534;2024-03-23T03:55:04;25.23;;;7.53;;
18296;SDS011;18066;52.106;5.534;2024-03-23T03:57:39;18.20;;;7.10;;
18296;SDS011;18066;52.106;5.534;2024-03-23T04:00:11;23.53;;;6.83;;
18296;SDS011;18066;52.106;5.534;2024-03-23T04:02:39;20.97;;;7.43;;
18296;SDS011;18066;52.106;5.534;2024-03-23T04:05:06;16.13;;;7.10;;
18296;SDS011;18066;52.106;5.534;2024-03-23T04:07:33;16.40;;;6.47;;
18296;SDS011;18066;52.106;5.534;2024-03-23T04:10:00;22.13;;;6.80;;
18296;SDS011;18066;52.106;5.534;2024-03-23T04:12:26;22.87;;;7.33;;
18296;SDS011;18066;52.106;5.534;2024-03-23T04:14:54;21.00;;;7.77;;
18296;SDS011;18066;52.106;5.534;2024-03-23T04:17:22;16.90;;;6.10;;
18296;SDS011;18066;52.106;5.534;2024-03-23T04:19:51;25.93;;;7.03;;
18296;SDS011;18066;52.106;5.534;2024-03-23T04:22:19;16.77;;;5.93;;
18296;SDS011;18066;52.106;5.534;2024-03-23T04:24:49;15.77;;;5.20;;
18296;SDS011;18066;52.106;5.534;2024-03-23T04:27:15;17.93;;;5.20;;
18296;SDS011;18066;52.106;5.534;2024-03-23T04:29:42;18.27;;;5.60;;
18296;SDS011;18066;52.106;5.534;2024-03-23T04:32:13;17.00;;;5.63;;
18296;SDS011;18066;52.106;5.534;2024-03-23T04:34:41;13.90;;;5.70;;
18296;SDS011;18066;52.106;5.534;2024-03-23T04:37:10;20.73;;;6.03;;
18296;SDS011;18066;52.106;5.534;2024-03-23T04:39:37;14.63;;;4.80;;
18296;SDS011;18066;52.106;5.534;2024-03-23T04:42:04;14.20;;;5.20;;
18296;SDS011;18066;52.106;5.534;2024-03-23T04:44:32;20.77;;;5.40;;
18296;SDS011;18066;52.106;5.534;2024-03-23T04:46:58;19.27;;;4.73;;
18296;SDS011;18066;52.106;5.534;2024-03-23T04:49:26;16.10;;;5.27;;
18296;SDS011;18066;52.106;5.534;2024-03-23T04:51:53;10.00;;;4.37;;
18296;SDS011;18066;52.106;5.534;2024-03-23T04:54:21;14.70;;;3.50;;
18296;SDS011;18066;52.106;5.534;2024-03-23T04:56:48;16.07;;;4.43;;
18296;SDS011;18066;52.106;5.534;2024-03-23T04:59:15;12.47;;;4.43;;
18296;SDS011;18066;52.106;5.534;2024-03-23T05:01:41;11.63;;;4.00;;
18296;SDS011;18066;52.106;5.534;2024-03-23T05:04:08;24.70;;;4.30;;
18296;SDS011;18066;52.106;5.534;2024-03-23T05:06:35;20.20;;;3.40;;
18296;SDS011;18066;52.106;5.534;2024-03-23T05:09:02;18.53;;;4.43;;
18296;SDS011;18066;52.106;5.534;2024-03-23T05:11:32;20.43;;;4.30;;
18296;SDS011;18066;52.106;5.534;2024-03-23T05:13:59;16.30;;;4.20;;
18296;SDS011;18066;52.106;5.534;2024-03-23T05:16:25;14.53;;;3.17;;
18296;SDS011;18066;52.106;5.534;2024-03-23T05:18:53;13.53;;;2.67;;
18296;SDS011;18066;52.106;5.534;2024-03-23T05:21:19;12.27;;;3.40;;
18296;SDS011;18066;52.106;5.534;2024-03-23T05:23:46;17.50;;;3.33;;
18296;SDS011;18066;52.106;5.534;2024-03-23T05:26:12;16.97;;;4.00;;
18296;SDS011;18066;52.106;5.534;2024-03-23T05:28:40;13.03;;;3.00;;
18296;SDS011;18066;52.106;5.534;2024-03-23T05:31:06;13.30;;;3.70;;
18296;SDS011;18066;52.106;5.534;2024-03-23T05:33:36;14.73;;;3.60;;
18296;SDS011;18066;52.106;5.534;2024-03-23T05:36:03;6.03;;;2.43;;
18296;SDS011;18066;52.106;5.534;2024-03-23T05:38:33;11.97;;;3.77;;
18296;SDS011;18066;52.106;5.534;2024-03-23T05:41:01;15.10;;;3.77;;
18296;SDS011;18066;52.106;5.534;2024-03-23T05:43:30;14.70;;;2.70;;
18296;SDS011;18066;52.106;5.534;2024-03-23T05:45:58;13.83;;;2.90;;
18296;SDS011;18066;52.106;5.534;2024-03-23T05:48:26;8.13;;;2.63;;
18296;SDS011;18066;52.106;5.534;2024-03-23T05:50:53;18.70;;;4.17;;
18296;SDS011;18066;52.106;5.534;2024-03-23T05:53:22;12.67;;;3.07;;
18296;SDS011;18066;52.106;5.534;2024-03-23T05:55:50;12.90;;;2.80;;
18296;SDS011;18066;52.106;5.534;2024-03-23T05:58:19;12.73;;;3.13;;
18296;SDS011;18066;52.106;5.534;2024-03-23T06:00:45;10.40;;;2.20;;
18296;SDS011;18066;52.106;5.534;2024-03-23T06:03:20;11.23;;;2.50;;
18296;SDS011;18066;52.106;5.534;2024-03-23T06:05:46;23.40;;;3.57;;
18296;SDS011;18066;52.106;5.534;2024-03-23T06:08:16;8.33;;;2.03;;
18296;SDS011;18066;52.106;5.534;2024-03-23T06:10:49;10.87;;;2.43;;
18296;SDS011;18066;52.106;5.534;2024-03-23T06:13:27;15.57;;;2.33;;
18296;SDS011;18066;52.106;5.534;2024-03-23T06:16:09;14.63;;;2.67;;
18296;SDS011;18066;52.106;5.534;2024-03-23T06:18:44;9.63;;;2.43;;
18296;SDS011;18066;52.106;5.534;2024-03-23T06:21:48;6.87;;;2.37;;
18296;SDS011;18066;52.106;5.534;2024-03-23T06:24:22;13.20;;;2.60;;
18296;SDS011;18066;52.106;5.534;2024-03-23T06:27:08;13.23;;;2.70;;
18296;SDS011;18066;52.106;5.534;2024-03-23T06:29:52;7.43;;;2.27;;
18296;SDS011;18066;52.106;5.534;2024-03-23T06:32:18;8.83;;;2.13;;
18296;SDS011;18066;52.106;5.534;2024-03-23T06:34:57;7.77;;;1.50;;
18296;SDS011;18066;52.106;5.534;2024-03-23T06:37:35;9.07;;;1.90;;
18296;SDS011;18066;52.106;5.534;2024-03-23T06:40:13;11.95;;;2.40;;
18296;SDS011;18066;52.106;5.534;2024-03-23T06:43:21;8.40;;;1.97;;
18296;SDS011;18066;52.106;5.534;2024-03-23T06:45:37;7.43;;;1.47;;
18296;SDS011;18066;52.106;5.534;2024-03-23T06:48:06;11.93;;;2.37;;
18296;SDS011;18066;52.106;5.534;2024-03-23T06:50:35;14.20;;;2.53;;
18296;SDS011;18066;52.106;5.534;2024-03-23T06:53:03;8.87;;;1.97;;
18296;SDS011;18066;52.106;5.534;2024-03-23T06:55:31;11.97;;;2.20;;
18296;SDS011;18066;52.106;5.534;2024-03-23T06:57:57;11.20;;;1.97;;
18296;SDS011;18066;52.106;5.534;2024-03-23T07:00:24;7.67;;;2.07;;
18296;SDS011;18066;52.106;5.534;2024-03-23T07:02:51;11.50;;;2.23;;
18296;SDS011;18066;52.106;5.534;2024-03-23T07:05:18;12.90;;;2.63;;
18296;SDS011;18066;52.106;5.534;2024-03-23T07:07:45;11.13;;;2.00;;
18296;SDS011;18066;52.106;5.534;2024-03-23T07:10:12;11.37;;;2.33;;
18296;SDS011;18066;52.106;5.534;2024-03-23T07:12:38;12.40;;;1.83;;
18296;SDS011;18066;52.106;5.534;2024-03-23T07:15:05;7.57;;;1.77;;
18296;SDS011;18066;52.106;5.534;2024-03-23T07:17:33;9.57;;;2.50;;
18296;SDS011;18066;52.106;5.534;2024-03-23T07:20:01;13.70;;;3.70;;
18296;SDS011;18066;52.106;5.534;2024-03-23T07:22:29;13.37;;;4.90;;
18296;SDS011;18066;52.106;5.534;2024-03-23T07:24:59;12.40;;;4.10;;
18296;SDS011;18066;52.106;5.534;2024-03-23T07:27:26;15.73;;;4.50;;
18296;SDS011;18066;52.106;5.534;2024-03-23T07:29:53;10.97;;;2.70;;
18296;SDS011;18066;52.106;5.534;2024-03-23T07:32:20;10.20;;;3.20;;
18296;SDS011;18066;52.106;5.534;2024-03-23T07:34:47;7.43;;;2.90;;
18296;SDS011;18066;52.106;5.534;2024-03-23T07:37:13;10.80;;;3.03;;
18296;SDS011;18066;52.106;5.534;2024-03-23T07:39:42;7.93;;;2.40;;
18296;SDS011;18066;52.106;5.534;2024-03-23T07:42:14;10.60;;;2.47;;
18296;SDS011;18066;52.106;5.534;2024-03-23T07:44:41;7.97;;;2.10;;
18296;SDS011;18066;52.106;5.534;2024-03-23T07:47:07;10.50;;;2.77;;
18296;SDS011;18066;52.106;5.534;2024-03-23T07:49:40;9.80;;;3.20;;
18296;SDS011;18066;52.106;5.534;2024-03-23T07:52:06;12.47;;;3.27;;
18296;SDS011;18066;52.106;5.534;2024-03-23T07:54:33;16.33;;;5.23;;
18296;SDS011;18066;52.106;5.534;2024-03-23T07:56:59;15.50;;;5.50;;
18296;SDS011;18066;52.106;5.534;2024-03-23T07:59:30;18.23;;;6.00;;
18296;SDS011;18066;52.106;5.534;2024-03-23T08:01:58;15.93;;;4.87;;
18296;SDS011;18066;52.106;5.534;2024-03-23T08:04:26;12.63;;;4.30;;
18296;SDS011;18066;52.106;5.534;2024-03-23T08:06:52;6.63;;;2.73;;
18296;SDS011;18066;52.106;5.534;2024-03-23T08:09:19;12.87;;;2.57;;
18296;SDS011;18066;52.106;5.534;2024-03-23T08:11:46;11.17;;;2.73;;
18296;SDS011;18066;52.106;5.534;2024-03-23T08:14:12;10.90;;;2.07;;
18296;SDS011;18066;52.106;5.534;2024-03-23T08:16:40;17.30;;;1.97;;
18296;SDS011;18066;52.106;5.534;2024-03-23T08:19:07;10.80;;;1.90;;
18296;SDS011;18066;52.106;5.534;2024-03-23T08:21:33;11.60;;;1.77;;
18296;SDS011;18066;52.106;5.534;2024-03-23T08:24:00;8.73;;;1.97;;
18296;SDS011;18066;52.106;5.534;2024-03-23T08:26:26;9.87;;;2.10;;
18296;SDS011;18066;52.106;5.534;2024-03-23T08:28:53;9.40;;;2.07;;
18296;SDS011;18066;52.106;5.534;2024-03-23T08:31:19;11.23;;;1.97;;
18296;SDS011;18066;52.106;5.534;2024-03-23T08:33:48;14.13;;;3.27;;
18296;SDS011;18066;52.106;5.534;2024-03-23T08:36:13;8.07;;;1.90;;
18296;SDS011;18066;52.106;5.534;2024-03-23T08:39:06;5.73;;;1.37;;
18296;SDS011;18066;52.106;5.534;2024-03-23T08:41:37;8.67;;;1.30;;
18296;SDS011;18066;52.106;5.534;2024-03-23T08:44:06;9.10;;;1.57;;
18296;SDS011;18066;52.106;5.534;2024-03-23T08:46:32;12.73;;;1.80;;
18296;SDS011;18066;52.106;5.534;2024-03-23T08:49:01;13.57;;;1.60;;
18296;SDS011;18066;52.106;5.534;2024-03-23T08:51:56;9.97;;;1.63;;
18296;SDS011;18066;52.106;5.534;2024-03-23T08:57:18;10.48;;;1.70;;
18296;SDS011;18066;52.106;5.534;2024-03-23T09:01:21;9.77;;;1.93;;
18296;SDS011;18066;52.106;5.534;2024-03-23T09:07:19;9.43;;;2.00;;
18296;SDS011;18066;52.106;5.534;2024-03-23T09:09:47;9.70;;;1.20;;
18296;SDS011;18066;52.106;5.534;2024-03-23T09:12:14;10.40;;;1.60;;
18296;SDS011;18066;52.106;5.534;2024-03-23T09:14:41;7.63;;;1.70;;
18296;SDS011;18066;52.106;5.534;2024-03-23T09:17:08;6.50;;;1.30;;
18296;SDS011;18066;52.106;5.534;2024-03-23T09:19:35;10.97;;;1.93;;
18296;SDS011;18066;52.106;5.534;2024-03-23T09:22:07;8.07;;;1.97;;
18296;SDS011;18066;52.106;5.534;2024-03-23T09:24:33;5.93;;;1.33;;
18296;SDS011;18066;52.106;5.534;2024-03-23T09:27:01;8.77;;;1.73;;
18296;SDS011;18066;52.106;5.534;2024-03-23T09:29:28;4.57;;;1.13;;
18296;SDS011;18066;52.106;5.534;2024-03-23T09:31:57;7.30;;;1.70;;
18296;SDS011;18066;52.106;5.534;2024-03-23T09:34:33;6.43;;;1.07;;
18296;SDS011;18066;52.106;5.534;2024-03-23T09:37:04;5.77;;;1.17;;
18296;SDS011;18066;52.106;5.534;2024-03-23T09:39:34;8.73;;;1.33;;
18296;SDS011;18066;52.106;5.534;2024-03-23T09:42:00;10.83;;;1.83;;
18296;SDS011;18066;52.106;5.534;2024-03-23T09:44:26;10.70;;;1.63;;
18296;SDS011;18066;52.106;5.534;2024-03-23T09:47:04;8.80;;;1.67;;
18296;SDS011;18066;52.106;5.534;2024-03-23T09:49:30;5.07;;;1.10;;
18296;SDS011;18066;52.106;5.534;2024-03-23T09:52:01;3.13;;;1.33;;
18296;SDS011;18066;52.106;5.534;2024-03-23T09:54:27;7.47;;;1.70;;
18296;SDS011;18066;52.106;5.534;2024-03-23T09:57:06;6.33;;;1.80;;
18296;SDS011;18066;52.106;5.534;2024-03-23T09:59:37;6.57;;;1.10;;
18296;SDS011;18066;52.106;5.534;2024-03-23T10:02:06;1.80;;;0.90;;
18296;SDS011;18066;52.106;5.534;2024-03-23T10:04:38;3.50;;;0.80;;
18296;SDS011;18066;52.106;5.534;2024-03-23T10:07:12;6.20;;;1.33;;
18296;SDS011;18066;52.106;5.534;2024-03-23T10:09:41;7.17;;;1.30;;
18296;SDS011;18066;52.106;5.534;2024-03-23T10:12:12;8.17;;;1.27;;
18296;SDS011;18066;52.106;5.534;2024-03-23T10:14:39;10.27;;;2.07;;
18296;SDS011;18066;52.106;5.534;2024-03-23T10:17:20;10.60;;;2.00;;
18296;SDS011;18066;52.106;5.534;2024-03-23T10:19:50;7.97;;;1.93;;
18296;SDS011;18066;52.106;5.534;2024-03-23T10:25:26;10.30;;;1.67;;
18296;SDS011;18066;52.106;5.534;2024-03-23T10:28:31;9.23;;;1.63;;
18296;SDS011;18066;52.106;5.534;2024-03-23T10:31:11;9.13;;;1.93;;
18296;SDS011;18066;52.106;5.534;2024-03-23T10:33:51;5.57;;;1.33;;
18296;SDS011;18066;52.106;5.534;2024-03-23T10:36:41;9.80;;;1.03;;
18296;SDS011;18066;52.106;5.534;2024-03-23T10:39:18;11.43;;;1.70;;
18296;SDS011;18066;52.106;5.534;2024-03-23T10:41:49;5.57;;;1.50;;
18296;SDS011;18066;52.106;5.534;2024-03-23T10:44:20;11.03;;;1.70;;
18296;SDS011;18066;52.106;5.534;2024-03-23T10:47:29;12.17;;;1.73;;
18296;SDS011;18066;52.106;5.534;2024-03-23T10:49:58;11.73;;;1.90;;
18296;SDS011;18066;52.106;5.534;2024-03-23T10:52:32;11.17;;;1.47;;
18296;SDS011;18066;52.106;5.534;2024-03-23T10:55:07;6.83;;;1.40;;
18296;SDS011;18066;52.106;5.534;2024-03-23T11:05:29;3.17;;;1.00;;
18296;SDS011;18066;52.106;5.534;2024-03-23T15:10:47;2.37;;;0.90;;
18296;SDS011;18066;52.106;5.534;2024-03-23T15:16:41;1.33;;;0.53;;
18296;SDS011;18066;52.106;5.534;2024-03-23T15:20:08;4.23;;;0.87;;
18296;SDS011;18066;52.106;5.534;2024-03-23T15:23:49;13.37;;;1.30;;
18296;SDS011;18066;52.106;5.534;2024-03-23T15:26:25;4.77;;;1.23;;
18296;SDS011;18066;52.106;5.534;2024-03-23T15:32:58;3.83;;;0.80;;
18296;SDS011;18066;52.106;5.534;2024-03-23T15:38:32;6.37;;;1.00;;
18296;SDS011;18066;52.106;5.534;2024-03-23T16:04:09;5.77;;;0.90;;
18296;SDS011;18066;52.106;5.534;2024-03-23T17:57:57;3.50;;;1.00;;
18296;SDS011;18066;52.106;5.534;2024-03-23T18:01:13;2.83;;;1.00;;
18296;SDS011;18066;52.106;5.534;2024-03-23T18:23:29;9.60;;;2.83;;
18296;SDS011;18066;52.106;5.534;2024-03-23T18:26:37;7.57;;;3.80;;
18296;SDS011;18066;52.106;5.534;2024-03-23T18:36:22;10.27;;;2.67;;
18296;SDS011;18066;52.106;5.534;2024-03-23T18:39:11;4.87;;;1.60;;
18296;SDS011;18066;52.106;5.534;2024-03-23T18:42:22;2.60;;;0.97;;
18296;SDS011;18066;52.106;5.534;2024-03-23T18:45:10;10.20;;;1.67;;
18296;SDS011;18066;52.106;5.534;2024-03-23T19:08:47;5.03;;;1.90;;
18296;SDS011;18066;52.106;5.534;2024-03-23T19:15:06;4.73;;;1.87;;
